createdAt,value
2018-10-16T00:01:40.588Z,17.00
2018-10-16T00:04:08.950Z,18.07
2018-10-16T00:06:37.287Z,16.97
2018-10-16T00:09:07.317Z,16.75
2018-10-16T00:11:35.621Z,17.12
2018-10-16T00:14:03.926Z,17.25
2018-10-16T00:16:32.214Z,17.25
2018-10-16T00:19:00.552Z,17.80
2018-10-16T00:21:28.855Z,17.42
2018-10-16T00:23:57.100Z,17.60
2018-10-16T00:26:25.449Z,17.52
2018-10-16T00:28:53.769Z,18.37
2018-10-16T00:31:22.078Z,16.85
2018-10-16T00:33:50.391Z,16.65
2018-10-16T00:36:18.699Z,18.57
2018-10-16T00:38:46.929Z,17.90
2018-10-16T00:41:15.348Z,17.23
2018-10-16T00:43:43.650Z,17.20
2018-10-16T00:46:11.927Z,18.80
2018-10-16T00:48:40.271Z,17.70
2018-10-16T00:51:08.579Z,17.10
2018-10-16T00:53:36.864Z,18.45
2018-10-16T00:56:05.407Z,17.73
2018-10-16T00:58:33.738Z,18.20
2018-10-16T01:01:02.057Z,16.60
2018-10-16T01:03:30.305Z,17.42
2018-10-16T01:05:58.624Z,18.95
2018-10-16T01:08:27.216Z,16.85
2018-10-16T01:10:56.569Z,16.87
2018-10-16T01:13:24.881Z,16.83
2018-10-16T01:15:53.272Z,17.73
2018-10-16T01:18:21.595Z,16.62
2018-10-16T01:20:49.861Z,18.10
2018-10-16T01:23:18.106Z,17.50
2018-10-16T01:25:46.407Z,17.40
2018-10-16T01:28:14.795Z,17.70
2018-10-16T01:30:43.108Z,17.87
2018-10-16T01:33:11.403Z,17.05
2018-10-16T01:35:39.738Z,17.87
2018-10-16T01:38:08.038Z,17.20
2018-10-16T01:40:36.337Z,17.20
2018-10-16T01:43:04.677Z,18.67
2018-10-16T01:45:32.967Z,18.67
2018-10-16T01:48:01.347Z,17.15
2018-10-16T01:50:29.638Z,17.40
2018-10-16T01:52:57.917Z,18.70
2018-10-16T01:55:26.290Z,17.20
2018-10-16T01:57:54.593Z,17.40
2018-10-16T02:00:22.877Z,17.90
2018-10-16T02:02:51.307Z,17.23
2018-10-16T02:05:19.577Z,18.30
2018-10-16T02:07:47.894Z,16.90
2018-10-16T02:10:16.235Z,18.25
2018-10-16T02:12:44.543Z,17.52
2018-10-16T02:15:12.860Z,17.73
2018-10-16T02:17:41.157Z,18.95
2018-10-16T02:20:10.046Z,17.37
2018-10-16T02:22:39.193Z,17.12
2018-10-16T02:25:07.949Z,17.17
2018-10-16T02:27:36.216Z,17.05
2018-10-16T02:30:04.926Z,16.57
2018-10-16T02:32:33.182Z,16.73
2018-10-16T02:35:01.446Z,17.53
2018-10-16T02:37:29.759Z,17.35
2018-10-16T02:39:58.117Z,16.60
2018-10-16T02:42:26.426Z,16.48
2018-10-16T02:44:54.702Z,15.93
2018-10-16T02:47:23.017Z,17.40
2018-10-16T02:49:51.280Z,17.60
2018-10-16T02:52:19.694Z,16.52
2018-10-16T02:54:48.051Z,16.82
2018-10-16T02:57:16.429Z,15.72
2018-10-16T02:59:44.741Z,16.85
2018-10-16T03:02:13.039Z,16.62
2018-10-16T03:04:41.503Z,16.52
2018-10-16T03:07:09.799Z,16.60
2018-10-16T03:09:38.065Z,16.93
2018-10-16T03:12:06.457Z,16.17
2018-10-16T03:14:34.726Z,16.60
2018-10-16T03:17:03.054Z,16.75
2018-10-16T03:19:31.383Z,15.80
2018-10-16T03:21:59.666Z,16.05
2018-10-16T03:24:28.005Z,15.00
2018-10-16T03:26:56.286Z,15.38
2018-10-16T03:29:24.594Z,16.67
2018-10-16T03:31:52.882Z,16.45
2018-10-16T03:34:21.191Z,16.25
2018-10-16T03:36:49.508Z,15.20
2018-10-16T03:39:17.832Z,15.80
2018-10-16T03:41:46.120Z,16.30
2018-10-16T03:44:14.647Z,15.70
2018-10-16T03:46:43.009Z,16.00
2018-10-16T03:49:11.812Z,15.90
2018-10-16T03:51:40.908Z,16.17
2018-10-16T03:54:09.824Z,15.90
2018-10-16T03:56:38.143Z,16.00
2018-10-16T03:59:06.541Z,15.15
2018-10-16T04:01:34.832Z,15.90
2018-10-16T04:04:03.192Z,15.40
2018-10-16T04:06:31.544Z,16.52
2018-10-16T04:08:59.848Z,16.40
2018-10-16T04:11:28.287Z,16.23
2018-10-16T04:13:56.588Z,16.02
2018-10-16T04:16:24.973Z,16.35
2018-10-16T04:18:53.209Z,15.98
2018-10-16T04:21:21.428Z,16.52
2018-10-16T04:23:49.798Z,15.58
2018-10-16T04:26:18.035Z,16.13
2018-10-16T04:28:46.276Z,16.57
2018-10-16T04:31:14.620Z,16.12
2018-10-16T04:33:43.151Z,15.55
2018-10-16T04:36:11.392Z,15.35
2018-10-16T04:38:39.637Z,15.80
2018-10-16T04:41:07.853Z,16.67
2018-10-16T04:43:36.128Z,15.55
2018-10-16T04:46:04.426Z,14.58
2018-10-16T04:48:32.635Z,16.52
2018-10-16T04:51:00.869Z,15.10
2018-10-16T04:53:29.177Z,15.95
2018-10-16T04:55:57.422Z,14.73
2018-10-16T04:58:25.945Z,14.95
2018-10-16T05:00:54.241Z,16.77
2018-10-16T05:03:22.488Z,18.25
2018-10-16T05:05:50.707Z,15.78
2018-10-16T05:08:18.965Z,16.50
2018-10-16T05:10:47.286Z,15.70
2018-10-16T05:13:15.687Z,16.10
2018-10-16T05:15:43.902Z,16.30
2018-10-16T05:18:12.487Z,16.15
2018-10-16T05:20:40.817Z,16.52
2018-10-16T05:23:09.107Z,16.10
2018-10-16T05:25:37.364Z,17.50
2018-10-16T05:28:05.656Z,16.95
2018-10-16T05:30:33.946Z,17.50
2018-10-16T05:33:02.364Z,18.15
2018-10-16T05:35:30.646Z,16.85
2018-10-16T05:37:58.952Z,17.67
2018-10-16T05:40:27.338Z,18.70
2018-10-16T05:42:55.682Z,18.52
2018-10-16T05:45:25.100Z,18.25
2018-10-16T05:47:53.398Z,18.20
2018-10-16T05:50:22.273Z,17.42
2018-10-16T05:52:50.562Z,19.10
2018-10-16T05:55:18.936Z,19.52
2018-10-16T05:57:47.216Z,18.87
2018-10-16T06:00:26.965Z,17.57
2018-10-16T06:02:55.196Z,17.85
2018-10-16T06:05:23.502Z,18.92
2018-10-16T06:07:51.816Z,21.17
2018-10-16T06:10:20.110Z,21.95
2018-10-16T06:12:48.402Z,22.22
2018-10-16T06:15:16.605Z,20.57
2018-10-16T06:17:44.916Z,21.37
2018-10-16T06:20:13.555Z,20.15
2018-10-16T06:22:42.550Z,21.02
2018-10-16T06:25:11.136Z,21.68
2018-10-16T06:27:40.619Z,21.02
2018-10-16T06:30:09.315Z,20.48
2018-10-16T06:32:38.286Z,21.93
2018-10-16T06:35:07.258Z,21.73
2018-10-16T06:37:35.510Z,22.15
2018-10-16T06:40:03.906Z,24.75
2018-10-16T06:42:32.140Z,24.55
2018-10-16T06:45:00.332Z,22.17
2018-10-16T06:47:28.655Z,21.12
2018-10-16T06:49:56.915Z,20.50
2018-10-16T06:52:25.141Z,19.77
2018-10-16T06:54:53.403Z,62.85
2018-10-16T06:57:21.679Z,21.20
2018-10-16T06:59:49.962Z,20.17
2018-10-16T07:02:18.209Z,20.10
2018-10-16T07:04:46.580Z,20.35
2018-10-16T07:07:14.936Z,19.07
2018-10-16T07:09:43.053Z,20.82
2018-10-16T07:12:11.303Z,18.80
2018-10-16T07:14:39.602Z,20.23
2018-10-16T07:17:07.815Z,19.50
2018-10-16T07:19:36.134Z,20.37
2018-10-16T07:22:07.484Z,20.52
2018-10-16T07:24:36.329Z,19.55
2018-10-16T07:27:05.122Z,20.25
2018-10-16T07:29:33.464Z,19.60
2018-10-16T07:32:02.932Z,20.57
2018-10-16T07:34:31.395Z,19.40
2018-10-16T07:36:59.893Z,20.15
2018-10-16T07:39:28.358Z,20.32
2018-10-16T07:41:56.871Z,20.97
2018-10-16T07:44:25.171Z,22.98
2018-10-16T07:46:53.450Z,18.87
2018-10-16T07:49:21.877Z,23.67
2018-10-16T07:51:50.173Z,24.63
2018-10-16T07:54:18.478Z,33.18
2018-10-16T07:56:46.990Z,18.98
2018-10-16T07:59:15.296Z,21.95
2018-10-16T08:01:43.513Z,19.32
2018-10-16T08:04:11.844Z,20.30
2018-10-16T08:06:40.108Z,19.92
2018-10-16T08:09:10.586Z,19.57
2018-10-16T08:11:43.092Z,19.12
2018-10-16T08:14:11.465Z,18.80
2018-10-16T08:16:39.688Z,17.98
2018-10-16T08:19:07.960Z,19.10
2018-10-16T08:21:36.210Z,19.40
2018-10-16T08:24:04.609Z,17.65
2018-10-16T08:26:32.887Z,19.12
2018-10-16T08:29:01.163Z,18.85
2018-10-16T08:31:29.601Z,20.30
2018-10-16T08:33:57.884Z,20.43
2018-10-16T08:36:26.318Z,19.85
2018-10-16T08:39:02.234Z,17.70
2018-10-16T08:41:51.820Z,17.50
2018-10-16T08:44:31.715Z,19.23
2018-10-16T08:47:11.612Z,18.65
2018-10-16T08:49:51.443Z,18.45
2018-10-16T08:52:19.634Z,18.92
2018-10-16T08:54:47.970Z,18.30
2018-10-16T08:57:16.291Z,18.05
2018-10-16T08:59:44.621Z,18.25
2018-10-16T09:02:12.925Z,19.65
2018-10-16T09:04:41.205Z,16.27
2018-10-16T09:07:09.444Z,17.30
2018-10-16T09:09:37.720Z,17.77
2018-10-16T09:12:05.973Z,17.95
2018-10-16T09:14:34.241Z,18.45
2018-10-16T09:17:02.504Z,19.42
2018-10-16T09:19:30.763Z,19.70
2018-10-16T09:21:59.209Z,16.67
2018-10-16T09:24:27.539Z,17.65
2018-10-16T09:26:55.786Z,17.00
2018-10-16T09:29:24.069Z,24.92
2018-10-16T09:31:52.285Z,17.60
2018-10-16T09:34:21.602Z,16.77
2018-10-16T09:36:49.935Z,16.87
2018-10-16T09:39:18.205Z,18.00
2018-10-16T09:41:46.497Z,17.67
2018-10-16T09:44:14.773Z,16.87
2018-10-16T09:46:43.143Z,17.32
2018-10-16T09:49:11.388Z,17.50
2018-10-16T09:51:39.594Z,16.07
2018-10-16T09:54:08.021Z,16.00
2018-10-16T09:56:36.628Z,17.12
2018-10-16T09:59:04.936Z,17.40
2018-10-16T10:01:38.562Z,17.37
2018-10-16T10:04:07.128Z,16.27
2018-10-16T10:06:35.361Z,16.12
2018-10-16T10:09:04.735Z,15.10
2018-10-16T10:11:32.973Z,15.48
2018-10-16T10:14:01.185Z,15.00
2018-10-16T10:16:29.498Z,14.80
2018-10-16T10:18:57.702Z,20.25
2018-10-16T10:21:26.226Z,14.77
2018-10-16T10:23:54.457Z,15.90
2018-10-16T10:26:22.881Z,14.78
2018-10-16T10:28:51.128Z,13.88
2018-10-16T10:31:19.393Z,14.00
2018-10-16T10:33:47.609Z,13.30
2018-10-16T10:36:15.971Z,14.80
2018-10-16T10:38:44.285Z,15.60
2018-10-16T10:41:12.579Z,14.25
2018-10-16T10:43:40.801Z,14.23
2018-10-16T10:46:09.014Z,14.05
2018-10-16T10:48:37.944Z,14.18
2018-10-16T10:51:06.536Z,14.35
2018-10-16T10:53:35.142Z,13.78
2018-10-16T10:56:03.392Z,15.27
2018-10-16T10:58:31.688Z,13.75
2018-10-16T11:00:59.940Z,13.58
2018-10-16T11:03:28.413Z,19.87
2018-10-16T11:05:56.589Z,15.90
2018-10-16T11:08:24.953Z,13.30
2018-10-16T11:10:53.210Z,11.60
2018-10-16T11:13:21.525Z,11.85
2018-10-16T11:15:49.793Z,12.65
2018-10-16T11:18:18.045Z,12.10
2018-10-16T11:20:46.301Z,13.15
2018-10-16T11:23:14.539Z,12.37
2018-10-16T11:25:42.796Z,12.45
2018-10-16T11:28:11.007Z,11.28
2018-10-16T11:30:39.246Z,11.00
2018-10-16T11:33:07.594Z,12.33
2018-10-16T11:35:35.952Z,11.97
2018-10-16T11:38:04.421Z,13.53
2018-10-16T11:40:32.756Z,12.30
2018-10-16T11:43:01.081Z,12.45
2018-10-16T11:45:29.299Z,11.20
2018-10-16T11:47:57.572Z,11.48
2018-10-16T11:50:25.825Z,14.00
2018-10-16T11:52:54.081Z,13.53
2018-10-16T11:55:22.317Z,13.00
2018-10-16T11:57:51.062Z,13.75
2018-10-16T12:00:19.361Z,13.25
2018-10-16T12:20:09.044Z,15.20
2018-10-16T12:22:37.278Z,14.20
2018-10-16T12:25:06.486Z,13.30
2018-10-16T12:27:34.700Z,12.95
2018-10-16T12:30:02.972Z,13.20
2018-10-16T12:32:32.886Z,12.40
2018-10-16T12:35:01.100Z,13.70
2018-10-16T12:37:29.350Z,14.78
2018-10-16T12:39:57.610Z,11.90
2018-10-16T12:42:26.034Z,13.90
2018-10-16T12:44:54.349Z,13.10
2018-10-16T12:47:22.550Z,15.15
2018-10-16T12:49:50.820Z,16.70
2018-10-16T12:52:19.131Z,15.68
2018-10-16T12:54:47.381Z,16.25
2018-10-16T12:57:15.966Z,15.85
2018-10-16T12:59:45.282Z,13.35
2018-10-16T13:02:14.021Z,13.35
2018-10-16T13:04:42.154Z,13.83
2018-10-16T13:07:15.820Z,14.17
2018-10-16T13:09:44.128Z,12.45
2018-10-16T13:12:12.344Z,13.05
2018-10-16T13:14:40.592Z,12.50
2018-10-16T13:17:08.804Z,12.90
2018-10-16T13:19:37.040Z,13.40
2018-10-16T13:22:05.464Z,12.40
2018-10-16T13:24:33.722Z,12.40
2018-10-16T13:27:02.311Z,14.05
2018-10-16T13:29:30.795Z,14.68
2018-10-16T13:31:59.021Z,13.20
2018-10-16T13:34:27.283Z,12.50
2018-10-16T13:36:55.654Z,19.05
2018-10-16T13:39:23.795Z,14.63
2018-10-16T13:41:52.088Z,12.43
2018-10-16T13:44:20.353Z,12.75
2018-10-16T13:46:48.568Z,11.30
2018-10-16T13:49:16.980Z,12.27
2018-10-16T13:51:45.259Z,11.30
2018-10-16T13:54:13.555Z,12.82
2018-10-16T13:56:42.175Z,13.20
2018-10-16T13:59:10.585Z,11.70
2018-10-16T14:01:38.865Z,10.70
2018-10-16T14:04:07.293Z,10.95
2018-10-16T14:06:35.413Z,10.60
2018-10-16T14:09:04.841Z,11.60
2018-10-16T14:11:33.885Z,13.60
2018-10-16T14:14:02.254Z,12.05
2018-10-16T14:16:30.593Z,18.90
2018-10-16T14:18:58.921Z,13.65
2018-10-16T14:21:27.347Z,14.47
2018-10-16T14:23:55.683Z,12.50
2018-10-16T14:26:23.921Z,11.43
2018-10-16T14:28:52.497Z,12.25
2018-10-16T14:31:20.744Z,11.63
2018-10-16T14:33:49.949Z,12.60
2018-10-16T14:36:18.061Z,47.62
2018-10-16T14:38:46.320Z,17.60
2018-10-16T14:41:14.637Z,14.83
2018-10-16T14:43:42.885Z,12.97
2018-10-16T14:46:11.175Z,13.70
2018-10-16T14:48:39.462Z,12.15
2018-10-16T14:51:07.785Z,12.90
2018-10-16T14:53:36.001Z,14.18
2018-10-16T14:56:04.723Z,15.58
2018-10-16T14:58:32.955Z,14.23
2018-10-16T15:18:17.313Z,16.87
2018-10-16T15:20:45.591Z,22.97
2018-10-16T15:23:14.039Z,22.37
2018-10-16T15:25:42.764Z,18.37
2018-10-16T15:28:11.487Z,20.80
2018-10-16T15:30:39.782Z,16.85
2018-10-16T15:33:08.115Z,17.42
2018-10-16T15:35:37.110Z,16.65
2018-10-16T15:38:08.399Z,18.20
2018-10-16T15:40:39.775Z,19.60
2018-10-16T15:43:11.944Z,19.50
2018-10-16T15:45:41.709Z,19.17
2018-10-16T15:48:10.165Z,18.80
2018-10-16T15:50:38.576Z,19.70
2018-10-16T15:53:08.032Z,18.02
2018-10-16T15:55:36.311Z,17.52
2018-10-16T15:58:05.447Z,17.92
2018-10-16T16:00:36.184Z,19.60
2018-10-16T16:03:04.434Z,19.85
2018-10-16T16:05:32.767Z,18.85
2018-10-16T16:08:01.022Z,18.40
2018-10-16T16:10:29.394Z,18.40
2018-10-16T16:12:58.467Z,18.90
2018-10-16T16:15:26.865Z,20.70
2018-10-16T16:17:55.308Z,19.75
2018-10-16T16:20:23.547Z,17.60
2018-10-16T16:22:51.922Z,17.80
2018-10-16T16:25:20.392Z,19.67
2018-10-16T16:27:48.819Z,20.88
2018-10-16T16:30:17.724Z,20.23
2018-10-16T16:32:46.319Z,19.77
2018-10-16T16:35:15.094Z,19.80
2018-10-16T16:37:44.041Z,18.82
2018-10-16T16:40:14.069Z,18.85
2018-10-16T16:42:42.506Z,20.90
2018-10-16T16:45:11.598Z,19.80
2018-10-16T16:47:39.846Z,19.67
2018-10-16T16:50:09.518Z,20.70
2018-10-16T16:52:37.822Z,20.55
2018-10-16T16:55:07.617Z,19.40
2018-10-16T16:57:35.932Z,20.05
2018-10-16T17:00:04.241Z,20.53
2018-10-16T17:02:32.595Z,20.23
2018-10-16T17:05:00.835Z,21.00
2018-10-16T17:07:29.350Z,20.72
2018-10-16T17:09:57.652Z,19.80
2018-10-16T17:12:25.902Z,20.40
2018-10-16T17:14:54.204Z,20.82
2018-10-16T17:17:22.479Z,22.17
2018-10-16T17:19:50.771Z,22.05
2018-10-16T17:23:48.458Z,21.02
2018-10-16T17:26:17.054Z,22.67
2018-10-16T17:28:45.429Z,19.90
2018-10-16T17:31:13.949Z,23.00
2018-10-16T17:33:42.230Z,24.57
2018-10-16T17:36:10.581Z,21.95
2018-10-16T17:38:38.890Z,21.45
2018-10-16T17:41:07.139Z,30.77
2018-10-16T17:43:35.396Z,22.40
2018-10-16T17:46:04.053Z,21.73
2018-10-16T17:48:32.326Z,20.25
2018-10-16T17:51:00.714Z,23.55
2018-10-16T17:53:28.979Z,24.10
2018-10-16T17:55:57.204Z,25.92
2018-10-16T17:58:25.453Z,22.87
2018-10-16T18:00:53.709Z,22.75
2018-10-16T18:03:22.171Z,25.15
2018-10-16T18:05:50.634Z,22.55
2018-10-16T18:08:19.049Z,24.57
2018-10-16T18:10:47.476Z,22.70
2018-10-16T18:13:15.880Z,23.07
2018-10-16T18:15:44.181Z,138.22
2018-10-16T18:18:12.541Z,123.13
2018-10-16T18:20:40.842Z,27.50
2018-10-16T18:23:09.234Z,24.23
2018-10-16T18:25:37.722Z,23.60
2018-10-16T18:28:06.142Z,24.35
2018-10-16T18:30:35.539Z,24.02
2018-10-16T18:33:03.850Z,24.20
2018-10-16T18:35:32.248Z,25.45
2018-10-16T18:38:00.583Z,24.85
2018-10-16T18:40:29.191Z,25.45
2018-10-16T18:42:57.455Z,25.82
2018-10-16T18:45:25.775Z,26.93
2018-10-16T18:47:54.136Z,26.20
2018-10-16T18:50:22.479Z,24.15
2018-10-16T18:52:50.852Z,25.15
2018-10-16T18:55:19.136Z,29.42
2018-10-16T18:57:47.470Z,30.25
2018-10-16T19:00:17.933Z,28.43
2018-10-16T19:02:46.956Z,26.25
2018-10-16T19:05:15.580Z,24.70
2018-10-16T19:07:43.951Z,25.72
2018-10-16T19:10:12.333Z,25.30
2018-10-16T19:12:41.523Z,26.20
2018-10-16T19:15:11.388Z,25.32
2018-10-16T19:17:39.831Z,57.70
2018-10-16T19:20:09.875Z,96.72
2018-10-16T19:22:38.290Z,55.95
2018-10-16T19:25:07.129Z,25.02
2018-10-16T19:27:35.440Z,24.70
2018-10-16T19:30:03.848Z,23.38
2018-10-16T19:32:32.306Z,27.58
2018-10-16T19:35:00.783Z,29.80
2018-10-16T19:37:29.075Z,28.70
2018-10-16T19:39:57.425Z,26.07
2018-10-16T19:42:25.668Z,34.78
2018-10-16T19:44:54.036Z,26.48
2018-10-16T19:47:22.434Z,25.75
2018-10-16T19:49:50.880Z,25.45
2018-10-16T19:52:19.941Z,25.70
2018-10-16T19:54:48.618Z,25.75
2018-10-16T19:57:17.069Z,25.70
2018-10-16T19:59:45.261Z,26.17
2018-10-16T20:02:13.688Z,23.98
2018-10-16T20:04:42.080Z,24.95
2018-10-16T20:07:10.367Z,25.00
2018-10-16T20:09:38.669Z,26.23
2018-10-16T20:12:07.004Z,24.52
2018-10-16T20:14:35.527Z,28.73
2018-10-16T20:17:03.896Z,27.90
2018-10-16T20:19:32.368Z,28.47
2018-10-16T20:22:00.593Z,27.55
2018-10-16T20:24:28.916Z,27.52
2018-10-16T20:26:57.184Z,27.25
2018-10-16T20:29:25.547Z,26.53
2018-10-16T20:31:53.971Z,25.95
2018-10-16T20:34:22.338Z,25.80
2018-10-16T20:36:51.405Z,27.30
2018-10-16T20:39:19.761Z,26.12
2018-10-16T20:41:48.074Z,27.05
2018-10-16T20:44:16.480Z,30.90
2018-10-16T20:46:44.771Z,32.53
2018-10-16T20:49:13.139Z,28.93
2018-10-16T20:51:41.343Z,28.90
2018-10-16T20:54:09.590Z,28.70
2018-10-16T20:56:37.831Z,29.85
2018-10-16T20:59:06.117Z,29.70
2018-10-16T21:01:34.379Z,29.52
2018-10-16T21:04:02.655Z,28.80
2018-10-16T21:06:31.179Z,31.27
2018-10-16T21:08:59.306Z,32.42
2018-10-16T21:11:27.547Z,31.60
2018-10-16T21:13:55.924Z,33.55
2018-10-16T21:16:24.211Z,32.33
2018-10-16T21:18:52.417Z,32.67
2018-10-16T21:21:20.765Z,31.02
2018-10-16T21:23:49.050Z,31.33
2018-10-16T21:26:17.269Z,32.05
2018-10-16T21:28:45.877Z,29.82
2018-10-16T21:31:14.279Z,30.23
2018-10-16T21:33:42.598Z,32.20
2018-10-16T21:36:10.812Z,28.83
2018-10-16T21:38:39.156Z,30.72
2018-10-16T21:41:07.515Z,28.87
2018-10-16T21:43:35.815Z,31.00
2018-10-16T21:46:04.119Z,28.60
2018-10-16T21:48:32.469Z,28.92
2018-10-16T21:51:00.704Z,29.30
2018-10-16T21:53:29.093Z,28.85
2018-10-16T21:55:57.479Z,28.85
2018-10-16T21:58:26.051Z,29.00
2018-10-16T22:00:59.837Z,29.98
2018-10-16T22:03:28.150Z,30.60
2018-10-16T22:05:56.391Z,28.45
2018-10-16T22:08:24.659Z,29.03
2018-10-16T22:10:52.930Z,29.65
2018-10-16T22:13:21.201Z,28.47
2018-10-16T22:15:49.424Z,29.80
2018-10-16T22:18:17.721Z,28.65
2018-10-16T22:20:45.977Z,27.85
2018-10-16T22:23:14.319Z,28.67
2018-10-16T22:25:42.550Z,29.45
2018-10-16T22:28:10.795Z,27.60
2018-10-16T22:30:39.066Z,29.97
2018-10-16T22:33:07.279Z,26.75
2018-10-16T22:35:35.590Z,26.90
2018-10-16T22:38:03.869Z,28.12
2018-10-16T22:40:32.176Z,28.15
2018-10-16T22:43:00.444Z,30.80
2018-10-16T22:45:28.654Z,27.70
2018-10-16T22:47:56.908Z,27.25
2018-10-16T22:50:25.194Z,28.47
2018-10-16T22:52:53.484Z,27.35
2018-10-16T22:55:21.746Z,28.38
2018-10-16T22:57:49.954Z,28.32
2018-10-16T23:00:19.233Z,27.77
2018-10-16T23:02:48.403Z,30.30
2018-10-16T23:05:16.695Z,29.10
2018-10-16T23:07:46.069Z,28.70
2018-10-16T23:10:14.844Z,27.55
2018-10-16T23:12:43.439Z,27.42
2018-10-16T23:15:12.165Z,28.60
2018-10-16T23:17:40.849Z,28.12
2018-10-16T23:20:10.101Z,27.70
2018-10-16T23:22:38.324Z,28.45
2018-10-16T23:25:06.678Z,29.32
2018-10-16T23:27:35.433Z,28.80
2018-10-16T23:30:03.770Z,28.83
2018-10-16T23:32:32.004Z,29.25
2018-10-16T23:35:00.262Z,29.60
2018-10-16T23:37:28.538Z,28.52
2018-10-16T23:39:56.778Z,31.17
2018-10-16T23:42:24.979Z,30.25
2018-10-16T23:44:53.247Z,28.47
2018-10-16T23:47:21.440Z,28.80
2018-10-16T23:49:49.714Z,30.30
2018-10-16T23:52:17.946Z,30.90
2018-10-16T23:54:46.172Z,30.00
2018-10-16T23:57:14.391Z,28.95
2018-10-16T23:59:42.607Z,30.60
